sensor_id;sensor_type;location;lat;lon;timestamp;temperature;humidity
5027;DHT22;2532;52.480;13.354;2022-09-09T00:00:46;17.70;99.90
5027;DHT22;2532;52.480;13.354;2022-09-09T00:03:39;17.60;99.90
5027;DHT22;2532;52.480;13.354;2022-09-09T00:06:14;17.60;99.90
5027;DHT22;2532;52.480;13.354;2022-09-09T00:08:52;17.50;99.90
5027;DHT22;2532;52.480;13.354;2022-09-09T00:11:26;17.50;99.90
5027;DHT22;2532;52.480;13.354;2022-09-09T00:13:57;17.50;99.90
5027;DHT22;2532;52.480;13.354;2022-09-09T00:16:28;17.50;99.90
5027;DHT22;2532;52.480;13.354;2022-09-09T00:19:03;17.40;99.90
5027;DHT22;2532;52.480;13.354;2022-09-09T00:21:33;17.30;99.90
5027;DHT22;2532;52.480;13.354;2022-09-09T00:24:04;17.30;99.90
5027;DHT22;2532;52.480;13.354;2022-09-09T00:26:38;17.30;99.90
5027;DHT22;2532;52.480;13.354;2022-09-09T00:29:13;17.30;99.90
5027;DHT22;2532;52.480;13.354;2022-09-09T00:31:41;17.30;99.90
5027;DHT22;2532;52.480;13.354;2022-09-09T00:34:13;17.30;99.90
5027;DHT22;2532;52.480;13.354;2022-09-09T00:36:42;17.20;99.90
5027;DHT22;2532;52.480;13.354;2022-09-09T00:39:15;17.30;99.90
5027;DHT22;2532;52.480;13.354;2022-09-09T00:42:02;17.30;99.90
5027;DHT22;2532;52.480;13.354;2022-09-09T00:44:36;17.20;99.90
5027;DHT22;2532;52.480;13.354;2022-09-09T00:47:19;17.20;99.90
5027;DHT22;2532;52.480;13.354;2022-09-09T00:49:58;17.20;99.90
5027;DHT22;2532;52.480;13.354;2022-09-09T00:52:34;17.20;99.90
5027;DHT22;2532;52.480;13.354;2022-09-09T00:55:07;17.20;99.90
5027;DHT22;2532;52.480;13.354;2022-09-09T00:57:35;17.10;99.90
5027;DHT22;2532;52.480;13.354;2022-09-09T01:00:21;17.10;99.90
5027;DHT22;2532;52.480;13.354;2022-09-09T01:03:20;17.10;99.90
5027;DHT22;2532;52.480;13.354;2022-09-09T01:05:59;17.10;99.90
5027;DHT22;2532;52.480;13.354;2022-09-09T01:08:48;17.10;99.90
5027;DHT22;2532;52.480;13.354;2022-09-09T01:11:22;17.10;99.90
5027;DHT22;2532;52.480;13.354;2022-09-09T01:13:55;17.10;99.90
5027;DHT22;2532;52.480;13.354;2022-09-09T01:16:26;17.10;99.90
5027;DHT22;2532;52.480;13.354;2022-09-09T01:18:54;17.00;99.90
5027;DHT22;2532;52.480;13.354;2022-09-09T01:21:30;17.10;99.90
5027;DHT22;2532;52.480;13.354;2022-09-09T01:24:16;17.00;99.90
5027;DHT22;2532;52.480;13.354;2022-09-09T01:26:48;17.00;99.90
5027;DHT22;2532;52.480;13.354;2022-09-09T01:29:18;17.00;99.90
5027;DHT22;2532;52.480;13.354;2022-09-09T01:31:54;16.80;99.90
5027;DHT22;2532;52.480;13.354;2022-09-09T01:34:22;16.90;99.90
5027;DHT22;2532;52.480;13.354;2022-09-09T01:36:55;16.90;99.90
5027;DHT22;2532;52.480;13.354;2022-09-09T01:39:24;16.90;99.90
5027;DHT22;2532;52.480;13.354;2022-09-09T01:41:53;17.00;99.90
5027;DHT22;2532;52.480;13.354;2022-09-09T01:44:21;17.00;99.90
5027;DHT22;2532;52.480;13.354;2022-09-09T01:46:49;16.90;99.90
5027;DHT22;2532;52.480;13.354;2022-09-09T01:49:16;16.90;99.90
5027;DHT22;2532;52.480;13.354;2022-09-09T01:51:43;16.90;99.90
5027;DHT22;2532;52.480;13.354;2022-09-09T01:54:12;16.80;99.90
5027;DHT22;2532;52.480;13.354;2022-09-09T01:56:47;16.80;99.90
5027;DHT22;2532;52.480;13.354;2022-09-09T01:59:31;16.80;99.90
5027;DHT22;2532;52.480;13.354;2022-09-09T02:02:09;16.80;99.90
5027;DHT22;2532;52.480;13.354;2022-09-09T02:04:39;16.80;99.90
5027;DHT22;2532;52.480;13.354;2022-09-09T02:07:15;16.80;99.90
5027;DHT22;2532;52.480;13.354;2022-09-09T02:09:49;16.70;99.90
5027;DHT22;2532;52.480;13.354;2022-09-09T02:12:20;16.70;99.90
5027;DHT22;2532;52.480;13.354;2022-09-09T02:14:52;16.70;99.90
5027;DHT22;2532;52.480;13.354;2022-09-09T02:17:24;16.70;99.90
5027;DHT22;2532;52.480;13.354;2022-09-09T02:19:54;16.70;99.90
5027;DHT22;2532;52.480;13.354;2022-09-09T02:22:25;16.60;99.90
5027;DHT22;2532;52.480;13.354;2022-09-09T02:24:56;16.60;99.90
5027;DHT22;2532;52.480;13.354;2022-09-09T02:27:25;16.60;99.90
5027;DHT22;2532;52.480;13.354;2022-09-09T02:29:54;16.60;99.90
5027;DHT22;2532;52.480;13.354;2022-09-09T02:32:24;16.60;99.90
5027;DHT22;2532;52.480;13.354;2022-09-09T02:34:54;16.60;99.90
5027;DHT22;2532;52.480;13.354;2022-09-09T02:37:24;16.60;99.90
5027;DHT22;2532;52.480;13.354;2022-09-09T02:39:54;16.60;99.90
5027;DHT22;2532;52.480;13.354;2022-09-09T02:42:21;16.60;99.90
5027;DHT22;2532;52.480;13.354;2022-09-09T02:44:49;16.50;99.90
5027;DHT22;2532;52.480;13.354;2022-09-09T02:47:30;16.50;99.90
5027;DHT22;2532;52.480;13.354;2022-09-09T02:50:13;16.60;99.90
5027;DHT22;2532;52.480;13.354;2022-09-09T02:53:04;16.50;99.90
5027;DHT22;2532;52.480;13.354;2022-09-09T02:55:38;16.50;99.90
5027;DHT22;2532;52.480;13.354;2022-09-09T02:58:07;16.50;99.90
5027;DHT22;2532;52.480;13.354;2022-09-09T03:00:37;16.50;99.90
5027;DHT22;2532;52.480;13.354;2022-09-09T03:03:06;16.50;99.90
5027;DHT22;2532;52.480;13.354;2022-09-09T03:05:34;16.50;99.90
5027;DHT22;2532;52.480;13.354;2022-09-09T03:08:01;16.50;99.90
5027;DHT22;2532;52.480;13.354;2022-09-09T03:10:28;16.50;99.90
5027;DHT22;2532;52.480;13.354;2022-09-09T03:12:56;16.50;99.90
5027;DHT22;2532;52.480;13.354;2022-09-09T03:15:22;16.50;99.90
5027;DHT22;2532;52.480;13.354;2022-09-09T03:17:49;16.40;99.90
5027;DHT22;2532;52.480;13.354;2022-09-09T03:20:17;16.40;99.90
5027;DHT22;2532;52.480;13.354;2022-09-09T03:22:44;16.40;99.90
5027;DHT22;2532;52.480;13.354;2022-09-09T03:25:11;16.40;99.90
5027;DHT22;2532;52.480;13.354;2022-09-09T03:27:38;16.30;99.90
5027;DHT22;2532;52.480;13.354;2022-09-09T03:30:06;16.30;99.90
5027;DHT22;2532;52.480;13.354;2022-09-09T03:32:33;16.30;99.90
5027;DHT22;2532;52.480;13.354;2022-09-09T03:34:59;16.30;99.90
5027;DHT22;2532;52.480;13.354;2022-09-09T03:37:28;16.30;99.90
5027;DHT22;2532;52.480;13.354;2022-09-09T03:39:54;16.20;99.90
5027;DHT22;2532;52.480;13.354;2022-09-09T03:42:21;16.20;99.90
5027;DHT22;2532;52.480;13.354;2022-09-09T03:44:48;16.20;99.90
5027;DHT22;2532;52.480;13.354;2022-09-09T03:47:17;16.20;99.90
5027;DHT22;2532;52.480;13.354;2022-09-09T03:49:45;16.20;99.90
5027;DHT22;2532;52.480;13.354;2022-09-09T03:52:12;16.20;99.90
5027;DHT22;2532;52.480;13.354;2022-09-09T03:54:41;16.20;99.90
5027;DHT22;2532;52.480;13.354;2022-09-09T03:57:08;16.20;99.90
5027;DHT22;2532;52.480;13.354;2022-09-09T03:59:35;16.20;99.90
5027;DHT22;2532;52.480;13.354;2022-09-09T04:02:02;16.30;99.90
5027;DHT22;2532;52.480;13.354;2022-09-09T04:04:29;16.20;99.90
5027;DHT22;2532;52.480;13.354;2022-09-09T04:06:56;16.20;99.90
5027;DHT22;2532;52.480;13.354;2022-09-09T04:09:23;16.20;99.90
5027;DHT22;2532;52.480;13.354;2022-09-09T04:11:51;16.10;99.90
5027;DHT22;2532;52.480;13.354;2022-09-09T04:14:18;16.10;99.90
5027;DHT22;2532;52.480;13.354;2022-09-09T04:16:45;16.20;99.90
5027;DHT22;2532;52.480;13.354;2022-09-09T04:19:12;16.20;99.90
5027;DHT22;2532;52.480;13.354;2022-09-09T04:21:40;16.10;99.90
5027;DHT22;2532;52.480;13.354;2022-09-09T04:24:07;16.10;99.90
5027;DHT22;2532;52.480;13.354;2022-09-09T04:26:35;16.10;99.90
5027;DHT22;2532;52.480;13.354;2022-09-09T04:29:04;16.20;99.90
5027;DHT22;2532;52.480;13.354;2022-09-09T04:31:33;16.10;99.90
5027;DHT22;2532;52.480;13.354;2022-09-09T04:34:00;16.10;99.90
5027;DHT22;2532;52.480;13.354;2022-09-09T04:36:30;16.10;99.90
5027;DHT22;2532;52.480;13.354;2022-09-09T04:38:58;16.10;99.90
5027;DHT22;2532;52.480;13.354;2022-09-09T04:41:25;16.10;99.90
5027;DHT22;2532;52.480;13.354;2022-09-09T04:43:53;16.10;99.90
5027;DHT22;2532;52.480;13.354;2022-09-09T04:46:21;16.10;99.90
5027;DHT22;2532;52.480;13.354;2022-09-09T04:48:49;16.10;99.90
5027;DHT22;2532;52.480;13.354;2022-09-09T04:51:16;16.10;99.90
5027;DHT22;2532;52.480;13.354;2022-09-09T04:53:43;16.20;99.90
5027;DHT22;2532;52.480;13.354;2022-09-09T04:56:12;16.20;99.90
5027;DHT22;2532;52.480;13.354;2022-09-09T04:58:40;16.20;99.90
5027;DHT22;2532;52.480;13.354;2022-09-09T05:01:10;16.20;99.90
5027;DHT22;2532;52.480;13.354;2022-09-09T05:03:38;16.20;99.90
5027;DHT22;2532;52.480;13.354;2022-09-09T05:06:06;16.20;99.90
5027;DHT22;2532;52.480;13.354;2022-09-09T05:08:35;16.20;99.90
5027;DHT22;2532;52.480;13.354;2022-09-09T05:11:02;16.20;99.90
5027;DHT22;2532;52.480;13.354;2022-09-09T05:13:29;16.20;99.90
5027;DHT22;2532;52.480;13.354;2022-09-09T05:15:57;16.20;99.90
5027;DHT22;2532;52.480;13.354;2022-09-09T05:18:24;16.20;99.90
5027;DHT22;2532;52.480;13.354;2022-09-09T05:20:56;16.20;99.90
5027;DHT22;2532;52.480;13.354;2022-09-09T05:23:24;16.20;99.90
5027;DHT22;2532;52.480;13.354;2022-09-09T05:25:58;16.20;99.90
5027;DHT22;2532;52.480;13.354;2022-09-09T05:28:25;16.30;99.90
5027;DHT22;2532;52.480;13.354;2022-09-09T05:30:56;16.20;99.90
5027;DHT22;2532;52.480;13.354;2022-09-09T05:33:24;16.30;99.90
5027;DHT22;2532;52.480;13.354;2022-09-09T05:35:57;16.30;99.90
5027;DHT22;2532;52.480;13.354;2022-09-09T05:38:24;16.30;99.90
5027;DHT22;2532;52.480;13.354;2022-09-09T05:40:51;16.40;99.90
5027;DHT22;2532;52.480;13.354;2022-09-09T05:43:18;16.40;99.90
5027;DHT22;2532;52.480;13.354;2022-09-09T05:45:46;16.50;99.90
5027;DHT22;2532;52.480;13.354;2022-09-09T05:48:13;16.50;99.90
5027;DHT22;2532;52.480;13.354;2022-09-09T05:50:40;16.60;99.90
5027;DHT22;2532;52.480;13.354;2022-09-09T05:53:09;16.60;99.90
5027;DHT22;2532;52.480;13.354;2022-09-09T05:55:36;16.70;99.90
5027;DHT22;2532;52.480;13.354;2022-09-09T05:58:03;16.70;99.90
5027;DHT22;2532;52.480;13.354;2022-09-09T06:00:30;16.70;99.90
5027;DHT22;2532;52.480;13.354;2022-09-09T06:02:57;16.70;99.90
5027;DHT22;2532;52.480;13.354;2022-09-09T06:05:24;16.80;99.90
5027;DHT22;2532;52.480;13.354;2022-09-09T06:07:53;16.80;99.90
5027;DHT22;2532;52.480;13.354;2022-09-09T06:10:21;16.80;99.90
5027;DHT22;2532;52.480;13.354;2022-09-09T06:12:48;16.90;99.90
5027;DHT22;2532;52.480;13.354;2022-09-09T06:15:15;16.90;99.90
5027;DHT22;2532;52.480;13.354;2022-09-09T06:17:42;16.90;99.90
5027;DHT22;2532;52.480;13.354;2022-09-09T06:20:10;17.00;99.90
5027;DHT22;2532;52.480;13.354;2022-09-09T06:22:39;17.00;99.90
5027;DHT22;2532;52.480;13.354;2022-09-09T06:25:08;17.10;99.90
5027;DHT22;2532;52.480;13.354;2022-09-09T06:27:36;17.10;99.90
5027;DHT22;2532;52.480;13.354;2022-09-09T06:30:04;17.10;99.90
5027;DHT22;2532;52.480;13.354;2022-09-09T06:32:31;17.30;99.90
5027;DHT22;2532;52.480;13.354;2022-09-09T06:35:00;17.30;99.90
5027;DHT22;2532;52.480;13.354;2022-09-09T06:37:28;17.30;99.90
5027;DHT22;2532;52.480;13.354;2022-09-09T06:39:55;17.40;99.90
5027;DHT22;2532;52.480;13.354;2022-09-09T06:42:21;17.40;99.90
5027;DHT22;2532;52.480;13.354;2022-09-09T06:44:50;17.40;99.90
5027;DHT22;2532;52.480;13.354;2022-09-09T06:47:17;17.40;99.90
5027;DHT22;2532;52.480;13.354;2022-09-09T06:49:44;17.50;99.90
5027;DHT22;2532;52.480;13.354;2022-09-09T06:52:11;17.50;99.90
5027;DHT22;2532;52.480;13.354;2022-09-09T06:54:38;17.60;99.90
5027;DHT22;2532;52.480;13.354;2022-09-09T06:57:20;17.60;99.90
5027;DHT22;2532;52.480;13.354;2022-09-09T07:00:03;17.80;99.90
5027;DHT22;2532;52.480;13.354;2022-09-09T07:02:30;17.90;99.90
5027;DHT22;2532;52.480;13.354;2022-09-09T07:04:57;18.00;99.90
5027;DHT22;2532;52.480;13.354;2022-09-09T07:07:25;18.10;99.80
5027;DHT22;2532;52.480;13.354;2022-09-09T07:09:52;18.20;99.60
5027;DHT22;2532;52.480;13.354;2022-09-09T07:12:19;18.30;99.50
5027;DHT22;2532;52.480;13.354;2022-09-09T07:14:46;18.30;99.40
5027;DHT22;2532;52.480;13.354;2022-09-09T07:17:14;18.40;99.30
5027;DHT22;2532;52.480;13.354;2022-09-09T07:19:41;18.50;98.80
5027;DHT22;2532;52.480;13.354;2022-09-09T07:22:08;18.60;98.80
5027;DHT22;2532;52.480;13.354;2022-09-09T07:24:36;18.60;98.70
5027;DHT22;2532;52.480;13.354;2022-09-09T07:27:03;18.80;98.80
5027;DHT22;2532;52.480;13.354;2022-09-09T07:29:31;18.80;98.60
5027;DHT22;2532;52.480;13.354;2022-09-09T07:31:58;19.00;98.60
5027;DHT22;2532;52.480;13.354;2022-09-09T07:34:26;19.10;98.70
5027;DHT22;2532;52.480;13.354;2022-09-09T07:36:53;19.20;98.30
5027;DHT22;2532;52.480;13.354;2022-09-09T07:39:19;19.30;98.10
5027;DHT22;2532;52.480;13.354;2022-09-09T07:41:47;19.30;98.10
5027;DHT22;2532;52.480;13.354;2022-09-09T07:44:16;19.50;98.30
5027;DHT22;2532;52.480;13.354;2022-09-09T07:46:44;19.60;98.30
5027;DHT22;2532;52.480;13.354;2022-09-09T07:49:14;19.70;98.30
5027;DHT22;2532;52.480;13.354;2022-09-09T07:51:46;19.90;97.90
5027;DHT22;2532;52.480;13.354;2022-09-09T07:54:16;20.00;97.60
5027;DHT22;2532;52.480;13.354;2022-09-09T07:56:46;20.10;97.10
5027;DHT22;2532;52.480;13.354;2022-09-09T07:59:13;20.20;97.30
5027;DHT22;2532;52.480;13.354;2022-09-09T08:01:42;20.40;97.00
5027;DHT22;2532;52.480;13.354;2022-09-09T08:04:12;20.50;96.70
5027;DHT22;2532;52.480;13.354;2022-09-09T08:06:42;20.60;96.50
5027;DHT22;2532;52.480;13.354;2022-09-09T08:09:11;20.70;95.90
5027;DHT22;2532;52.480;13.354;2022-09-09T08:11:39;20.70;95.80
5027;DHT22;2532;52.480;13.354;2022-09-09T08:14:06;20.80;95.80
5027;DHT22;2532;52.480;13.354;2022-09-09T08:16:36;20.80;95.50
5027;DHT22;2532;52.480;13.354;2022-09-09T08:19:04;20.80;95.40
5027;DHT22;2532;52.480;13.354;2022-09-09T08:21:31;20.80;95.50
5027;DHT22;2532;52.480;13.354;2022-09-09T08:24:00;20.80;95.60
5027;DHT22;2532;52.480;13.354;2022-09-09T08:26:30;20.80;95.70
5027;DHT22;2532;52.480;13.354;2022-09-09T08:28:58;20.70;95.80
5027;DHT22;2532;52.480;13.354;2022-09-09T08:31:27;20.80;95.90
5027;DHT22;2532;52.480;13.354;2022-09-09T08:33:55;20.80;96.00
5027;DHT22;2532;52.480;13.354;2022-09-09T08:36:23;20.80;95.80
5027;DHT22;2532;52.480;13.354;2022-09-09T08:38:52;20.80;95.60
5027;DHT22;2532;52.480;13.354;2022-09-09T08:41:41;20.80;95.30
5027;DHT22;2532;52.480;13.354;2022-09-09T08:44:17;20.80;95.40
5027;DHT22;2532;52.480;13.354;2022-09-09T08:46:52;20.80;95.30
5027;DHT22;2532;52.480;13.354;2022-09-09T08:49:44;20.80;95.30
5027;DHT22;2532;52.480;13.354;2022-09-09T08:52:17;20.90;95.50
5027;DHT22;2532;52.480;13.354;2022-09-09T08:54:46;20.90;95.50
5027;DHT22;2532;52.480;13.354;2022-09-09T08:57:20;20.90;95.50
5027;DHT22;2532;52.480;13.354;2022-09-09T08:59:49;20.90;95.50
5027;DHT22;2532;52.480;13.354;2022-09-09T09:02:19;21.00;95.60
5027;DHT22;2532;52.480;13.354;2022-09-09T09:05:05;21.00;95.40
5027;DHT22;2532;52.480;13.354;2022-09-09T09:07:44;21.00;95.80
5027;DHT22;2532;52.480;13.354;2022-09-09T09:10:21;21.10;95.30
5027;DHT22;2532;52.480;13.354;2022-09-09T09:12:53;21.10;95.20
5027;DHT22;2532;52.480;13.354;2022-09-09T09:15:23;21.20;95.40
5027;DHT22;2532;52.480;13.354;2022-09-09T09:17:51;21.30;94.90
5027;DHT22;2532;52.480;13.354;2022-09-09T09:20:21;21.40;95.00
5027;DHT22;2532;52.480;13.354;2022-09-09T09:22:51;21.40;94.60
5027;DHT22;2532;52.480;13.354;2022-09-09T09:25:20;21.50;94.80
5027;DHT22;2532;52.480;13.354;2022-09-09T09:27:56;21.60;94.60
5027;DHT22;2532;52.480;13.354;2022-09-09T09:30:29;21.70;94.60
5027;DHT22;2532;52.480;13.354;2022-09-09T09:32:59;21.90;94.50
5027;DHT22;2532;52.480;13.354;2022-09-09T09:35:28;21.90;93.70
5027;DHT22;2532;52.480;13.354;2022-09-09T09:37:54;22.00;93.50
5027;DHT22;2532;52.480;13.354;2022-09-09T09:40:22;22.10;93.20
5027;DHT22;2532;52.480;13.354;2022-09-09T09:42:52;22.10;93.30
5027;DHT22;2532;52.480;13.354;2022-09-09T09:45:27;22.20;93.40
5027;DHT22;2532;52.480;13.354;2022-09-09T09:47:59;22.30;93.10
5027;DHT22;2532;52.480;13.354;2022-09-09T09:50:27;22.40;92.90
5027;DHT22;2532;52.480;13.354;2022-09-09T09:52:56;22.40;93.00
5027;DHT22;2532;52.480;13.354;2022-09-09T09:55:23;22.50;92.80
5027;DHT22;2532;52.480;13.354;2022-09-09T09:57:50;22.50;92.30
5027;DHT22;2532;52.480;13.354;2022-09-09T10:00:20;22.50;92.40
5027;DHT22;2532;52.480;13.354;2022-09-09T10:02:49;22.60;92.90
5027;DHT22;2532;52.480;13.354;2022-09-09T10:05:20;22.70;92.60
5027;DHT22;2532;52.480;13.354;2022-09-09T10:08:00;22.80;92.10
5027;DHT22;2532;52.480;13.354;2022-09-09T10:10:44;22.80;92.40
5027;DHT22;2532;52.480;13.354;2022-09-09T10:13:18;22.90;92.30
5027;DHT22;2532;52.480;13.354;2022-09-09T10:15:53;22.80;92.20
5027;DHT22;2532;52.480;13.354;2022-09-09T10:18:43;22.90;92.30
5027;DHT22;2532;52.480;13.354;2022-09-09T10:21:24;22.80;92.20
5027;DHT22;2532;52.480;13.354;2022-09-09T10:24:09;22.80;92.40
5027;DHT22;2532;52.480;13.354;2022-09-09T10:26:46;22.80;92.00
5027;DHT22;2532;52.480;13.354;2022-09-09T10:29:26;22.80;91.90
5027;DHT22;2532;52.480;13.354;2022-09-09T10:32:12;22.90;91.90
5027;DHT22;2532;52.480;13.354;2022-09-09T10:34:55;22.90;91.70
5027;DHT22;2532;52.480;13.354;2022-09-09T10:37:38;22.90;91.70
5027;DHT22;2532;52.480;13.354;2022-09-09T10:40:31;22.90;91.80
5027;DHT22;2532;52.480;13.354;2022-09-09T10:43:08;23.00;91.80
5027;DHT22;2532;52.480;13.354;2022-09-09T10:45:46;23.10;91.60
5027;DHT22;2532;52.480;13.354;2022-09-09T10:48:31;23.10;91.20
5027;DHT22;2532;52.480;13.354;2022-09-09T10:51:10;23.10;91.00
5027;DHT22;2532;52.480;13.354;2022-09-09T10:53:49;23.10;91.10
5027;DHT22;2532;52.480;13.354;2022-09-09T10:56:20;23.10;91.10
5027;DHT22;2532;52.480;13.354;2022-09-09T10:58:51;23.10;91.00
5027;DHT22;2532;52.480;13.354;2022-09-09T11:01:22;23.20;91.10
5027;DHT22;2532;52.480;13.354;2022-09-09T11:03:56;23.20;91.30
5027;DHT22;2532;52.480;13.354;2022-09-09T11:06:30;23.30;91.00
5027;DHT22;2532;52.480;13.354;2022-09-09T11:08:59;23.30;90.70
5027;DHT22;2532;52.480;13.354;2022-09-09T11:11:32;23.30;91.00
5027;DHT22;2532;52.480;13.354;2022-09-09T11:14:04;23.30;91.00
5027;DHT22;2532;52.480;13.354;2022-09-09T11:16:39;23.30;91.10
5027;DHT22;2532;52.480;13.354;2022-09-09T11:19:13;23.30;91.00
5027;DHT22;2532;52.480;13.354;2022-09-09T11:21:46;23.30;91.30
5027;DHT22;2532;52.480;13.354;2022-09-09T11:24:18;23.40;91.40
5027;DHT22;2532;52.480;13.354;2022-09-09T11:26:51;23.40;91.40
5027;DHT22;2532;52.480;13.354;2022-09-09T11:29:44;23.60;91.10
5027;DHT22;2532;52.480;13.354;2022-09-09T11:32:39;23.70;90.60
5027;DHT22;2532;52.480;13.354;2022-09-09T11:35:26;23.80;90.60
5027;DHT22;2532;52.480;13.354;2022-09-09T11:38:10;23.80;90.30
5027;DHT22;2532;52.480;13.354;2022-09-09T11:40:41;23.90;90.50
5027;DHT22;2532;52.480;13.354;2022-09-09T11:43:11;24.00;90.30
5027;DHT22;2532;52.480;13.354;2022-09-09T11:45:40;24.10;88.70
5027;DHT22;2532;52.480;13.354;2022-09-09T11:48:22;24.10;88.20
5027;DHT22;2532;52.480;13.354;2022-09-09T11:50:58;24.20;87.20
5027;DHT22;2532;52.480;13.354;2022-09-09T11:53:27;24.20;87.50
5027;DHT22;2532;52.480;13.354;2022-09-09T11:56:05;24.30;87.70
5027;DHT22;2532;52.480;13.354;2022-09-09T11:58:37;24.30;86.60
5027;DHT22;2532;52.480;13.354;2022-09-09T12:01:16;24.40;87.00
5027;DHT22;2532;52.480;13.354;2022-09-09T12:04:01;24.50;87.70
5027;DHT22;2532;52.480;13.354;2022-09-09T12:06:32;24.60;87.10
5027;DHT22;2532;52.480;13.354;2022-09-09T12:09:08;24.70;86.80
5027;DHT22;2532;52.480;13.354;2022-09-09T12:11:36;24.80;86.40
5027;DHT22;2532;52.480;13.354;2022-09-09T12:14:03;24.90;86.80
5027;DHT22;2532;52.480;13.354;2022-09-09T12:16:32;25.00;87.10
5027;DHT22;2532;52.480;13.354;2022-09-09T12:19:05;25.00;87.20
5027;DHT22;2532;52.480;13.354;2022-09-09T12:21:36;25.10;86.00
5027;DHT22;2532;52.480;13.354;2022-09-09T12:24:09;25.20;86.10
5027;DHT22;2532;52.480;13.354;2022-09-09T12:26:39;25.20;82.80
5027;DHT22;2532;52.480;13.354;2022-09-09T12:29:24;25.30;84.00
5027;DHT22;2532;52.480;13.354;2022-09-09T12:31:58;25.30;82.80
5027;DHT22;2532;52.480;13.354;2022-09-09T12:34:34;25.30;82.00
5027;DHT22;2532;52.480;13.354;2022-09-09T12:37:06;25.30;81.70
5027;DHT22;2532;52.480;13.354;2022-09-09T12:39:39;25.30;82.30
5027;DHT22;2532;52.480;13.354;2022-09-09T12:42:16;25.20;82.70
5027;DHT22;2532;52.480;13.354;2022-09-09T12:44:54;25.30;82.10
5027;DHT22;2532;52.480;13.354;2022-09-09T12:47:23;25.20;82.40
5027;DHT22;2532;52.480;13.354;2022-09-09T12:49:52;25.20;82.90
5027;DHT22;2532;52.480;13.354;2022-09-09T12:52:25;25.20;83.10
5027;DHT22;2532;52.480;13.354;2022-09-09T12:54:57;25.20;83.00
5027;DHT22;2532;52.480;13.354;2022-09-09T12:57:25;25.20;82.70
5027;DHT22;2532;52.480;13.354;2022-09-09T13:00:08;25.20;82.60
5027;DHT22;2532;52.480;13.354;2022-09-09T13:02:50;25.20;82.10
5027;DHT22;2532;52.480;13.354;2022-09-09T13:05:20;25.20;81.70
5027;DHT22;2532;52.480;13.354;2022-09-09T13:07:47;25.10;81.10
5027;DHT22;2532;52.480;13.354;2022-09-09T13:10:21;25.10;81.00
5027;DHT22;2532;52.480;13.354;2022-09-09T13:12:49;25.10;80.70
5027;DHT22;2532;52.480;13.354;2022-09-09T13:15:21;25.10;79.10
5027;DHT22;2532;52.480;13.354;2022-09-09T13:17:55;25.00;80.20
5027;DHT22;2532;52.480;13.354;2022-09-09T13:20:24;25.00;79.90
5027;DHT22;2532;52.480;13.354;2022-09-09T13:22:52;24.90;80.40
5027;DHT22;2532;52.480;13.354;2022-09-09T13:25:24;24.80;80.90
5027;DHT22;2532;52.480;13.354;2022-09-09T13:27:54;24.80;81.20
5027;DHT22;2532;52.480;13.354;2022-09-09T13:30:23;24.80;81.60
5027;DHT22;2532;52.480;13.354;2022-09-09T13:33:03;24.80;81.70
5027;DHT22;2532;52.480;13.354;2022-09-09T13:35:31;24.80;82.10
5027;DHT22;2532;52.480;13.354;2022-09-09T13:37:58;24.80;82.00
5027;DHT22;2532;52.480;13.354;2022-09-09T13:40:27;24.90;82.10
5027;DHT22;2532;52.480;13.354;2022-09-09T13:42:56;25.00;82.40
5027;DHT22;2532;52.480;13.354;2022-09-09T13:45:25;25.10;81.30
5027;DHT22;2532;52.480;13.354;2022-09-09T13:47:53;25.40;81.00
5027;DHT22;2532;52.480;13.354;2022-09-09T13:50:22;25.50;79.90
5027;DHT22;2532;52.480;13.354;2022-09-09T13:52:49;25.60;79.60
5027;DHT22;2532;52.480;13.354;2022-09-09T13:55:19;25.70;79.20
5027;DHT22;2532;52.480;13.354;2022-09-09T13:57:52;25.70;78.80
5027;DHT22;2532;52.480;13.354;2022-09-09T14:00:20;25.70;78.50
5027;DHT22;2532;52.480;13.354;2022-09-09T14:02:47;25.90;77.80
5027;DHT22;2532;52.480;13.354;2022-09-09T14:05:14;25.90;78.60
5027;DHT22;2532;52.480;13.354;2022-09-09T14:07:42;26.00;78.10
5027;DHT22;2532;52.480;13.354;2022-09-09T14:10:09;26.10;78.20
5027;DHT22;2532;52.480;13.354;2022-09-09T14:12:36;26.20;78.20
5027;DHT22;2532;52.480;13.354;2022-09-09T14:15:07;26.40;76.10
5027;DHT22;2532;52.480;13.354;2022-09-09T14:17:34;26.40;74.90
5027;DHT22;2532;52.480;13.354;2022-09-09T14:20:02;26.60;74.40
5027;DHT22;2532;52.480;13.354;2022-09-09T14:22:29;26.70;73.50
5027;DHT22;2532;52.480;13.354;2022-09-09T14:24:56;26.80;74.10
5027;DHT22;2532;52.480;13.354;2022-09-09T14:27:23;26.90;73.40
5027;DHT22;2532;52.480;13.354;2022-09-09T14:29:51;27.00;72.70
5027;DHT22;2532;52.480;13.354;2022-09-09T14:32:19;27.00;70.60
5027;DHT22;2532;52.480;13.354;2022-09-09T14:34:46;27.10;71.00
5027;DHT22;2532;52.480;13.354;2022-09-09T14:37:15;27.10;71.80
5027;DHT22;2532;52.480;13.354;2022-09-09T14:39:42;27.10;72.60
5027;DHT22;2532;52.480;13.354;2022-09-09T14:42:10;27.10;73.50
5027;DHT22;2532;52.480;13.354;2022-09-09T14:44:37;27.00;74.10
5027;DHT22;2532;52.480;13.354;2022-09-09T14:47:04;26.90;74.80
5027;DHT22;2532;52.480;13.354;2022-09-09T14:49:33;26.70;75.60
5027;DHT22;2532;52.480;13.354;2022-09-09T14:51:59;26.60;76.30
5027;DHT22;2532;52.480;13.354;2022-09-09T14:54:27;26.40;76.90
5027;DHT22;2532;52.480;13.354;2022-09-09T14:56:54;26.20;77.30
5027;DHT22;2532;52.480;13.354;2022-09-09T14:59:22;26.20;77.70
5027;DHT22;2532;52.480;13.354;2022-09-09T15:01:49;26.10;77.80
5027;DHT22;2532;52.480;13.354;2022-09-09T15:04:16;26.00;76.60
5027;DHT22;2532;52.480;13.354;2022-09-09T15:06:45;25.80;76.60
5027;DHT22;2532;52.480;13.354;2022-09-09T15:09:13;25.70;77.40
5027;DHT22;2532;52.480;13.354;2022-09-09T15:11:40;25.70;77.30
5027;DHT22;2532;52.480;13.354;2022-09-09T15:14:09;25.70;77.20
5027;DHT22;2532;52.480;13.354;2022-09-09T15:16:38;25.70;76.70
5027;DHT22;2532;52.480;13.354;2022-09-09T15:19:05;25.70;75.80
5027;DHT22;2532;52.480;13.354;2022-09-09T15:21:34;25.80;75.50
5027;DHT22;2532;52.480;13.354;2022-09-09T15:24:03;25.80;75.70
5027;DHT22;2532;52.480;13.354;2022-09-09T15:26:31;25.70;75.70
5027;DHT22;2532;52.480;13.354;2022-09-09T15:28:58;25.70;75.50
5027;DHT22;2532;52.480;13.354;2022-09-09T15:31:27;25.80;74.80
5027;DHT22;2532;52.480;13.354;2022-09-09T15:33:57;26.00;75.00
5027;DHT22;2532;52.480;13.354;2022-09-09T15:36:27;26.10;74.80
5027;DHT22;2532;52.480;13.354;2022-09-09T15:38:55;26.10;74.10
5027;DHT22;2532;52.480;13.354;2022-09-09T15:41:23;26.20;73.10
5027;DHT22;2532;52.480;13.354;2022-09-09T15:43:51;26.20;72.00
5027;DHT22;2532;52.480;13.354;2022-09-09T15:46:25;26.30;71.30
5027;DHT22;2532;52.480;13.354;2022-09-09T15:48:53;26.30;72.00
5027;DHT22;2532;52.480;13.354;2022-09-09T15:51:21;26.50;71.70
5027;DHT22;2532;52.480;13.354;2022-09-09T15:53:48;26.60;71.40
5027;DHT22;2532;52.480;13.354;2022-09-09T15:56:15;26.70;71.70
5027;DHT22;2532;52.480;13.354;2022-09-09T15:58:44;26.90;70.40
5027;DHT22;2532;52.480;13.354;2022-09-09T16:01:11;27.00;70.00
5027;DHT22;2532;52.480;13.354;2022-09-09T16:03:40;27.10;69.70
5027;DHT22;2532;52.480;13.354;2022-09-09T16:06:09;27.00;68.80
5027;DHT22;2532;52.480;13.354;2022-09-09T16:08:37;26.80;68.40